CA-0514 weather

Long Sault Airstrip
Ontario, Canada

Public forecast

Using degrees Celsius for public forecast. Weather courtesy of forecast.io.

Closest aviation weather report (METAR) to Long Sault Airstrip

Closest report is Massena International Richards Field, 6.3 nm (11.6 km) S. Retrieved 2020/06/04 14:53 UTC (44 minutes ago):

KMSS 041453Z AUTO 23010KT 10SM FEW018 BKN075 21/15 A2978 RMK AO2 SLP084 T02060150 53003

Closest aviation forecast (TAF) to Long Sault Airstrip

Closest forecast is Massena International Richards Field, 6.3 nm (11.6 km) S. Retrieved 2020/06/04 12:39 UTC (3 hours ago):

TAF KMSS 041137Z 0412/0512 VRB04KT P6SM SCT003 BKN035 TEMPO 0412/0414 BKN003 FM041600 24008KT P6SM VCSH BKN050 FM050000 VRB04KT P6SM SCT050